createdAt,value
2018-08-23T00:03:00.465Z,21.20
2018-08-23T00:08:10.766Z,21.10
2018-08-23T00:13:15.589Z,21.00
2018-08-23T00:18:20.434Z,20.90
2018-08-23T00:23:26.003Z,20.80
2018-08-23T00:28:30.599Z,20.70
2018-08-23T00:33:35.228Z,20.80
2018-08-23T00:38:40.402Z,21.10
2018-08-23T00:43:45.254Z,21.20
2018-08-23T00:48:50.071Z,21.20
2018-08-23T00:54:00.107Z,21.20
2018-08-23T00:59:05.160Z,21.10
2018-08-23T01:04:10.134Z,21.10
2018-08-23T01:09:15.179Z,21.10
2018-08-23T01:14:20.543Z,21.10
2018-08-23T01:19:30.347Z,21.00
2018-08-23T01:24:35.077Z,21.00
2018-08-23T01:29:43.973Z,21.10
2018-08-23T01:34:48.536Z,21.40
2018-08-23T01:39:53.805Z,21.60
2018-08-23T01:44:58.575Z,21.70
2018-08-23T01:50:03.254Z,21.80
2018-08-23T01:55:08.106Z,21.90
2018-08-23T02:00:13.826Z,22.00
2018-08-23T02:05:19.095Z,22.10
2018-08-23T02:10:23.986Z,22.10
2018-08-23T02:15:36.532Z,22.00
2018-08-23T02:20:41.460Z,21.80
2018-08-23T02:25:46.279Z,21.70
2018-08-23T02:30:53.157Z,21.60
2018-08-23T02:36:22.759Z,21.50
2018-08-23T02:41:27.812Z,21.40
2018-08-23T02:46:32.833Z,21.40
2018-08-23T02:51:42.669Z,21.40
2018-08-23T02:56:53.988Z,21.30
2018-08-23T03:01:58.589Z,21.30
2018-08-23T03:07:05.449Z,21.30
2018-08-23T03:12:12.051Z,21.20
2018-08-23T03:17:24.421Z,21.20
2018-08-23T03:22:35.938Z,21.20
2018-08-23T03:27:40.746Z,21.30
2018-08-23T03:32:45.697Z,21.20
2018-08-23T03:37:51.142Z,21.30
2018-08-23T03:42:55.890Z,21.10
2018-08-23T03:48:00.853Z,21.10
2018-08-23T03:53:05.988Z,21.10
2018-08-23T03:58:11.057Z,21.00
2018-08-23T04:03:19.955Z,20.90
2018-08-23T04:08:24.910Z,20.70
2018-08-23T04:14:32.605Z,20.60
2018-08-23T04:19:45.969Z,20.70
2018-08-23T04:24:57.022Z,20.90
2018-08-23T04:30:01.896Z,21.30
2018-08-23T04:35:10.513Z,21.40
2018-08-23T04:40:17.298Z,21.50
2018-08-23T04:45:27.115Z,21.50
2018-08-23T04:50:31.922Z,21.50
2018-08-23T04:55:37.216Z,21.50
2018-08-23T05:00:41.952Z,21.50
2018-08-23T05:05:46.911Z,21.50
2018-08-23T05:10:52.660Z,21.40
2018-08-23T05:15:57.608Z,21.50
2018-08-23T05:21:02.176Z,21.50
2018-08-23T05:26:11.195Z,21.60
2018-08-23T05:31:16.918Z,21.50
2018-08-23T05:36:21.575Z,21.50
2018-08-23T05:41:26.417Z,21.60
2018-08-23T05:46:36.172Z,21.60
2018-08-23T05:51:42.346Z,21.70
2018-08-23T05:56:47.063Z,21.70
2018-08-23T06:01:52.116Z,21.90
2018-08-23T06:06:57.076Z,22.00
2018-08-23T06:12:01.793Z,22.20
2018-08-23T06:17:06.865Z,22.30
2018-08-23T06:22:12.427Z,22.50
2018-08-23T06:27:17.333Z,22.60
2018-08-23T06:32:22.469Z,22.80
2018-08-23T06:37:27.109Z,22.90
2018-08-23T06:42:45.700Z,23.00
2018-08-23T06:47:55.033Z,23.20
2018-08-23T06:52:59.750Z,23.40
2018-08-23T06:58:05.104Z,23.50
2018-08-23T07:03:10.763Z,23.50
2018-08-23T07:08:15.525Z,23.60
2018-08-23T07:13:20.646Z,23.70
2018-08-23T07:18:25.463Z,23.70
2018-08-23T07:23:34.956Z,23.70
2018-08-23T07:28:39.896Z,24.00
2018-08-23T07:33:47.194Z,24.10
2018-08-23T07:38:52.105Z,24.20
2018-08-23T07:43:57.544Z,24.20
2018-08-23T07:49:02.517Z,24.60
2018-08-23T07:54:11.148Z,24.70
2018-08-23T07:59:16.404Z,24.80
2018-08-23T08:04:21.431Z,25.20
2018-08-23T08:09:26.900Z,25.50
2018-08-23T08:14:35.805Z,25.00
2018-08-23T08:19:41.764Z,24.70
2018-08-23T08:24:46.605Z,24.80
2018-08-23T08:29:51.325Z,24.40
2018-08-23T08:34:58.097Z,24.60
2018-08-23T08:40:03.082Z,24.90
2018-08-23T08:45:10.731Z,25.10
2018-08-23T08:50:16.296Z,25.10
2018-08-23T08:55:21.152Z,25.30
2018-08-23T09:00:26.116Z,25.50
2018-08-23T09:05:30.845Z,25.30
2018-08-23T09:10:35.937Z,25.70
2018-08-23T09:15:40.767Z,25.80
2018-08-23T09:20:46.372Z,25.80
2018-08-23T09:25:52.032Z,25.50
2018-08-23T09:30:57.914Z,26.20
2018-08-23T09:36:02.763Z,26.40
2018-08-23T09:41:08.022Z,26.40
2018-08-23T09:46:13.116Z,26.50
2018-08-23T09:51:23.027Z,27.00
2018-08-23T09:56:29.416Z,27.60
2018-08-23T10:02:43.228Z,28.00
2018-08-23T10:07:53.076Z,28.00
2018-08-23T10:13:03.413Z,28.20
2018-08-23T10:18:13.702Z,28.50
2018-08-23T10:23:22.785Z,28.70
2018-08-23T10:28:32.754Z,28.70
2018-08-23T10:33:37.886Z,28.10
2018-08-23T10:38:42.568Z,28.50
2018-08-23T10:43:48.482Z,28.90
2018-08-23T10:48:53.633Z,29.30
2018-08-23T10:53:58.168Z,28.50
2018-08-23T10:59:03.480Z,29.00
2018-08-23T11:04:09.266Z,28.70
2018-08-23T11:09:18.858Z,27.90
2018-08-23T11:14:28.734Z,27.70
2018-08-23T11:19:38.825Z,28.00
2018-08-23T11:24:43.798Z,28.20
2018-08-23T11:29:48.639Z,28.60
2018-08-23T11:34:53.345Z,29.80
2018-08-23T11:39:58.269Z,31.90
2018-08-23T11:45:03.123Z,31.30
2018-08-23T11:50:08.015Z,30.10
2018-08-23T11:55:12.895Z,29.90
2018-08-23T12:00:18.118Z,32.30
2018-08-23T12:05:22.854Z,34.00
2018-08-23T12:10:28.767Z,34.90
2018-08-23T12:15:33.884Z,36.10
2018-08-23T12:20:39.127Z,36.50
2018-08-23T12:25:44.025Z,36.50
2018-08-23T12:30:48.898Z,35.00
2018-08-23T12:35:53.679Z,34.90
2018-08-23T12:41:03.627Z,36.00
2018-08-23T12:46:08.542Z,36.00
2018-08-23T12:51:13.440Z,35.50
2018-08-23T12:56:19.054Z,35.30
2018-08-23T13:01:23.910Z,36.30
2018-08-23T13:06:28.723Z,36.10
2018-08-23T13:11:34.485Z,36.50
2018-08-23T13:16:39.152Z,36.20
2018-08-23T13:21:43.759Z,36.70
2018-08-23T13:26:48.429Z,36.40
2018-08-23T13:31:53.432Z,33.90
2018-08-23T13:36:58.332Z,33.20
2018-08-23T13:42:03.015Z,32.70
2018-08-23T13:47:07.834Z,33.00
2018-08-23T13:52:13.572Z,34.10
2018-08-23T13:57:18.539Z,34.10
2018-08-23T14:02:24.201Z,34.90
2018-08-23T14:07:28.968Z,35.90
2018-08-23T14:12:33.868Z,34.00
2018-08-23T14:17:39.521Z,31.20
2018-08-23T14:22:44.473Z,29.60
2018-08-23T14:27:49.309Z,28.00
2018-08-23T14:32:54.872Z,26.70
2018-08-23T14:37:59.894Z,23.60
2018-08-23T14:43:04.862Z,21.20
2018-08-23T14:48:14.621Z,21.00
2018-08-23T14:53:24.760Z,21.20
2018-08-23T14:58:30.123Z,21.70
2018-08-23T15:03:34.889Z,21.90
2018-08-23T15:08:39.670Z,22.00
2018-08-23T15:13:44.469Z,22.20
2018-08-23T15:18:49.303Z,22.20
2018-08-23T15:23:53.977Z,21.80
2018-08-23T15:28:59.443Z,16.30
2018-08-23T15:34:04.607Z,15.50
2018-08-23T15:39:14.824Z,15.90
2018-08-23T15:44:20.649Z,16.30
2018-08-23T15:49:26.204Z,16.90
2018-08-23T15:54:31.034Z,17.20
2018-08-23T15:59:35.973Z,17.40
2018-08-23T16:04:41.309Z,17.60
2018-08-23T16:09:46.799Z,17.60
2018-08-23T16:14:51.504Z,17.80
2018-08-23T16:20:01.292Z,17.90
2018-08-23T16:25:06.040Z,18.10
2018-08-23T16:30:11.090Z,18.00
2018-08-23T16:35:16.498Z,18.00
2018-08-23T16:40:26.351Z,18.10
2018-08-23T16:45:32.019Z,18.30
2018-08-23T16:50:37.344Z,18.30
2018-08-23T16:55:41.992Z,18.50
2018-08-23T17:00:46.838Z,18.60
2018-08-23T17:05:51.598Z,18.60
2018-08-23T17:10:57.011Z,18.70
2018-08-23T17:17:10.057Z,18.70
2018-08-23T17:22:15.196Z,18.70
2018-08-23T17:27:20.153Z,18.90
2018-08-23T17:32:24.878Z,19.00
2018-08-23T17:37:29.855Z,19.20
2018-08-23T17:42:39.688Z,19.20
2018-08-23T17:47:44.649Z,19.20
2018-08-23T17:52:49.460Z,19.30
2018-08-23T17:57:54.399Z,19.20
2018-08-23T18:02:59.626Z,19.10
2018-08-23T18:08:04.491Z,19.00
2018-08-23T18:13:09.647Z,18.90
2018-08-23T18:18:15.219Z,18.80
2018-08-23T18:23:20.248Z,18.80
2018-08-23T18:28:25.030Z,18.80
2018-08-23T18:33:29.708Z,18.80
2018-08-23T18:38:35.357Z,18.90
2018-08-23T18:43:40.109Z,18.70
2018-08-23T18:48:45.046Z,18.60
2018-08-23T18:53:49.912Z,18.50
2018-08-23T18:58:54.859Z,18.30
2018-08-23T19:03:59.494Z,18.30
2018-08-23T19:09:06.521Z,18.30
2018-08-23T19:14:11.276Z,18.30
2018-08-23T19:19:16.002Z,18.40
2018-08-23T19:24:21.368Z,18.40
2018-08-23T19:29:26.081Z,18.40
2018-08-23T19:34:31.240Z,18.40
2018-08-23T19:39:35.767Z,18.40
2018-08-23T19:44:45.570Z,18.40
2018-08-23T19:49:57.373Z,18.30
2018-08-23T19:55:02.087Z,18.30
2018-08-23T20:00:08.051Z,18.30
2018-08-23T20:05:13.285Z,18.30
2018-08-23T20:10:18.230Z,18.20
2018-08-23T20:15:25.349Z,18.10
2018-08-23T20:20:30.187Z,18.10
2018-08-23T20:25:35.667Z,18.10
2018-08-23T20:30:40.279Z,18.10
2018-08-23T20:35:44.968Z,18.20
2018-08-23T20:40:49.680Z,18.10
2018-08-23T20:45:55.317Z,18.00
2018-08-23T20:51:00.516Z,18.00
2018-08-23T20:56:05.889Z,17.90
2018-08-23T21:01:10.804Z,17.80
2018-08-23T21:06:16.161Z,17.70
2018-08-23T21:11:21.020Z,17.80
2018-08-23T21:16:25.852Z,17.80
2018-08-23T21:21:30.890Z,17.80
2018-08-23T21:26:35.608Z,17.80
2018-08-23T21:31:41.790Z,17.70
2018-08-23T21:36:46.883Z,17.70
2018-08-23T21:41:52.223Z,17.70
2018-08-23T21:46:58.017Z,17.70
2018-08-23T21:52:13.185Z,17.70
2018-08-23T21:57:18.173Z,17.60
2018-08-23T22:02:23.116Z,17.70
2018-08-23T22:07:28.499Z,17.70
2018-08-23T22:12:33.291Z,17.70
2018-08-23T22:17:38.238Z,17.80
2018-08-23T22:22:43.934Z,17.80
2018-08-23T22:27:48.636Z,17.90
2018-08-23T22:32:54.121Z,18.00
2018-08-23T22:37:59.035Z,18.60
2018-08-23T22:43:03.998Z,19.00
2018-08-23T22:48:08.771Z,19.10
2018-08-23T22:53:13.687Z,19.10
2018-08-23T22:58:18.592Z,19.20
2018-08-23T23:03:28.324Z,19.20
2018-08-23T23:08:33.116Z,19.10
2018-08-23T23:13:37.757Z,18.70
2018-08-23T23:18:42.941Z,18.40
2018-08-23T23:23:47.799Z,18.20
2018-08-23T23:28:52.781Z,18.20
2018-08-23T23:33:57.566Z,18.10
2018-08-23T23:39:02.420Z,18.10
2018-08-23T23:44:07.109Z,18.10
2018-08-23T23:49:12.324Z,18.00
2018-08-23T23:54:17.236Z,18.00
2018-08-23T23:59:22.185Z,18.00
